createdAt,value
2019-03-10T00:00:49.143Z,974.43
2019-03-10T00:01:49.333Z,974.41
2019-03-10T00:02:49.280Z,974.40
2019-03-10T00:03:49.302Z,974.38
2019-03-10T00:04:49.321Z,974.35
2019-03-10T00:05:49.365Z,974.29
2019-03-10T00:06:49.430Z,974.30
2019-03-10T00:07:49.468Z,974.33
2019-03-10T00:08:49.530Z,974.26
2019-03-10T00:09:49.550Z,974.20
2019-03-10T00:10:49.598Z,974.26
2019-03-10T00:11:49.643Z,974.27
2019-03-10T00:12:49.694Z,974.19
2019-03-10T00:13:49.760Z,974.16
2019-03-10T00:14:49.786Z,974.17
2019-03-10T00:15:49.831Z,974.13
2019-03-10T00:16:49.877Z,974.18
2019-03-10T00:17:49.913Z,974.22
2019-03-10T00:18:49.987Z,974.17
2019-03-10T00:19:50.023Z,974.21
2019-03-10T00:20:50.067Z,974.26
2019-03-10T00:21:50.099Z,974.23
2019-03-10T00:22:50.143Z,974.25
2019-03-10T00:23:50.214Z,974.21
2019-03-10T00:24:50.362Z,974.24
2019-03-10T00:25:50.285Z,974.30
2019-03-10T00:26:50.330Z,974.35
2019-03-10T00:27:50.377Z,974.27
2019-03-10T00:28:50.468Z,974.25
2019-03-10T00:29:50.474Z,974.23
2019-03-10T00:30:50.520Z,974.26
2019-03-10T00:31:50.572Z,974.27
2019-03-10T00:32:50.620Z,974.21
2019-03-10T00:33:50.673Z,974.19
2019-03-10T00:34:50.707Z,974.22
2019-03-10T00:35:50.751Z,974.24
2019-03-10T00:36:50.787Z,974.15
2019-03-10T00:37:50.831Z,974.13
2019-03-10T00:38:50.878Z,974.05
2019-03-10T00:39:50.955Z,974.02
2019-03-10T00:40:50.971Z,974.04
2019-03-10T00:41:51.017Z,973.92
2019-03-10T00:42:51.070Z,973.91
2019-03-10T00:43:51.108Z,973.92
2019-03-10T00:44:51.199Z,973.94
2019-03-10T00:45:51.203Z,973.90
2019-03-10T00:46:51.243Z,973.82
2019-03-10T00:47:51.290Z,973.87
2019-03-10T00:48:51.343Z,973.79
2019-03-10T00:49:51.422Z,973.76
2019-03-10T00:50:51.436Z,973.70
2019-03-10T00:51:51.475Z,973.68
2019-03-10T00:52:51.529Z,973.72
2019-03-10T00:53:51.573Z,973.78
2019-03-10T00:54:51.635Z,973.72
2019-03-10T00:55:51.683Z,973.63
2019-03-10T00:56:51.710Z,973.61
2019-03-10T00:57:51.793Z,973.61
2019-03-10T00:58:51.796Z,973.68
2019-03-10T00:59:51.843Z,973.69
2019-03-10T01:00:51.918Z,973.51
2019-03-10T01:01:52.010Z,973.53
2019-03-10T01:02:51.980Z,973.51
2019-03-10T01:03:52.053Z,973.48
2019-03-10T01:04:52.076Z,973.52
2019-03-10T01:05:52.140Z,973.44
2019-03-10T01:06:52.181Z,973.43
2019-03-10T01:07:52.215Z,973.43
2019-03-10T01:08:52.365Z,973.40
2019-03-10T01:09:52.306Z,973.37
2019-03-10T01:10:52.388Z,973.28
2019-03-10T01:11:52.424Z,973.29
2019-03-10T01:12:52.444Z,973.21
2019-03-10T01:13:52.493Z,973.30
2019-03-10T01:14:52.541Z,973.27
2019-03-10T01:15:52.582Z,973.22
2019-03-10T01:16:52.646Z,973.14
2019-03-10T01:17:52.678Z,973.18
2019-03-10T01:18:52.720Z,973.15
2019-03-10T01:19:52.763Z,973.08
2019-03-10T01:20:52.814Z,973.05
2019-03-10T01:21:52.883Z,973.03
2019-03-10T01:22:52.907Z,972.95
2019-03-10T01:23:52.955Z,972.95
2019-03-10T01:24:52.998Z,972.93
2019-03-10T01:25:53.042Z,972.97
2019-03-10T01:26:53.103Z,972.87
2019-03-10T01:27:53.157Z,973.01
2019-03-10T01:28:53.190Z,972.88
2019-03-10T01:29:53.223Z,972.69
2019-03-10T01:30:53.274Z,972.76
2019-03-10T01:31:53.328Z,972.68
2019-03-10T01:32:53.390Z,972.77
2019-03-10T01:33:53.433Z,972.75
2019-03-10T01:34:53.459Z,972.74
2019-03-10T01:35:53.505Z,972.64
2019-03-10T01:36:53.545Z,972.68
2019-03-10T01:37:53.614Z,972.65
2019-03-10T01:38:53.644Z,972.60
2019-03-10T01:39:53.686Z,972.49
2019-03-10T01:40:53.796Z,972.52
2019-03-10T01:41:53.780Z,972.45
2019-03-10T01:42:53.840Z,972.41
2019-03-10T01:43:53.870Z,972.49
2019-03-10T01:44:53.910Z,972.51
2019-03-10T01:45:53.953Z,972.43
2019-03-10T01:46:54.000Z,972.39
2019-03-10T01:47:54.073Z,972.34
2019-03-10T01:48:54.096Z,972.29
2019-03-10T01:49:54.140Z,972.21
2019-03-10T01:50:54.200Z,972.24
2019-03-10T01:51:54.244Z,972.21
2019-03-10T01:52:54.323Z,972.17
2019-03-10T01:53:54.319Z,972.10
2019-03-10T01:54:54.382Z,972.06
2019-03-10T01:55:54.409Z,972.03
2019-03-10T01:56:54.494Z,972.00
2019-03-10T01:57:54.522Z,971.99
2019-03-10T01:58:54.574Z,971.96
2019-03-10T01:59:54.599Z,971.95
2019-03-10T02:00:54.650Z,971.90
2019-03-10T02:01:54.699Z,971.93
2019-03-10T02:02:54.735Z,971.86
2019-03-10T02:03:54.795Z,971.81
2019-03-10T02:04:54.830Z,971.76
2019-03-10T02:05:54.870Z,971.79
2019-03-10T02:06:54.927Z,971.78
2019-03-10T02:07:54.957Z,971.82
2019-03-10T02:08:55.028Z,971.83
2019-03-10T02:09:55.054Z,971.85
2019-03-10T02:10:55.094Z,971.77
2019-03-10T02:11:55.141Z,971.73
2019-03-10T02:12:55.186Z,971.67
2019-03-10T02:13:55.253Z,971.65
2019-03-10T02:14:55.277Z,971.65
2019-03-10T02:15:55.319Z,971.62
2019-03-10T02:16:55.367Z,971.60
2019-03-10T02:17:55.425Z,971.58
2019-03-10T02:18:55.476Z,971.56
2019-03-10T02:19:55.505Z,971.54
2019-03-10T02:20:55.551Z,971.55
2019-03-10T02:21:55.599Z,971.50
2019-03-10T02:22:55.645Z,971.47
2019-03-10T02:23:55.707Z,971.45
2019-03-10T02:24:55.733Z,971.41
2019-03-10T02:25:55.778Z,971.41
2019-03-10T02:26:55.819Z,971.34
2019-03-10T02:27:55.864Z,971.38
2019-03-10T02:28:56.067Z,971.36
2019-03-10T02:29:55.962Z,971.34
2019-03-10T02:30:56.003Z,971.34
2019-03-10T02:31:56.049Z,971.31
2019-03-10T02:32:56.101Z,971.32
2019-03-10T02:33:56.156Z,971.21
2019-03-10T02:34:56.179Z,971.21
2019-03-10T02:35:56.363Z,971.23
2019-03-10T02:36:56.271Z,971.21
2019-03-10T02:37:56.318Z,971.22
2019-03-10T02:38:56.382Z,971.16
2019-03-10T02:39:56.429Z,971.17
2019-03-10T02:40:56.452Z,971.17
2019-03-10T02:41:56.501Z,971.13
2019-03-10T02:42:56.548Z,971.10
2019-03-10T02:43:56.595Z,971.12
2019-03-10T02:44:56.661Z,971.05
2019-03-10T02:45:56.681Z,971.00
2019-03-10T02:46:56.725Z,971.04
2019-03-10T02:47:56.776Z,970.99
2019-03-10T02:48:56.813Z,971.03
2019-03-10T02:49:56.962Z,971.03
2019-03-10T02:50:56.909Z,970.99
2019-03-10T02:51:56.953Z,970.98
2019-03-10T02:52:56.997Z,970.97
2019-03-10T02:53:57.051Z,970.90
2019-03-10T02:54:57.121Z,970.91
2019-03-10T02:55:57.159Z,970.91
2019-03-10T02:56:57.206Z,970.88
2019-03-10T02:57:57.231Z,970.88
2019-03-10T02:58:57.281Z,970.86
2019-03-10T02:59:57.316Z,970.81
2019-03-10T03:00:57.384Z,970.85
2019-03-10T03:01:57.418Z,970.85
2019-03-10T03:02:57.452Z,970.80
2019-03-10T03:03:57.504Z,970.77
2019-03-10T03:04:57.546Z,970.69
2019-03-10T03:05:57.608Z,970.67
2019-03-10T03:06:57.630Z,970.66
2019-03-10T03:07:57.769Z,970.69
2019-03-10T03:08:57.723Z,970.64
2019-03-10T03:09:57.779Z,970.63
2019-03-10T03:10:57.835Z,970.61
2019-03-10T03:11:57.869Z,970.52
2019-03-10T03:12:57.910Z,970.50
2019-03-10T03:13:57.948Z,970.54
2019-03-10T03:14:57.999Z,970.50
2019-03-10T03:15:58.056Z,970.52
2019-03-10T03:16:58.094Z,970.52
2019-03-10T03:17:58.145Z,970.47
2019-03-10T03:18:58.261Z,970.46
2019-03-10T03:19:58.228Z,970.46
2019-03-10T03:20:58.289Z,970.48
2019-03-10T03:21:58.333Z,970.41
2019-03-10T03:22:58.357Z,970.40
2019-03-10T03:23:58.407Z,970.43
2019-03-10T03:24:58.455Z,970.38
2019-03-10T03:25:58.592Z,970.30
2019-03-10T03:26:58.541Z,970.32
2019-03-10T03:27:58.585Z,970.27
2019-03-10T03:28:58.630Z,970.24
2019-03-10T03:29:58.677Z,970.25
2019-03-10T03:30:58.741Z,970.29
2019-03-10T03:31:58.785Z,970.25
2019-03-10T03:32:58.833Z,970.23
2019-03-10T03:33:59.010Z,970.19
2019-03-10T03:34:58.909Z,970.14
2019-03-10T03:35:58.943Z,970.20
2019-03-10T03:36:59.021Z,970.16
2019-03-10T03:37:59.032Z,970.08
2019-03-10T03:38:59.082Z,970.06
2019-03-10T03:39:59.124Z,970.02
2019-03-10T03:40:59.200Z,969.95
2019-03-10T03:41:59.279Z,969.87
2019-03-10T03:42:59.297Z,969.82
2019-03-10T03:43:59.304Z,969.73
2019-03-10T03:44:59.355Z,969.69
2019-03-10T03:45:59.400Z,969.57
2019-03-10T03:46:59.457Z,969.50
2019-03-10T03:47:59.483Z,969.52
2019-03-10T03:48:59.536Z,969.47
2019-03-10T03:49:59.576Z,969.48
2019-03-10T03:50:59.619Z,969.41
2019-03-10T03:51:59.689Z,969.36
2019-03-10T03:52:59.711Z,969.35
2019-03-10T03:53:59.758Z,969.32
2019-03-10T03:54:59.805Z,969.27
2019-03-10T03:55:59.917Z,969.27
2019-03-10T03:56:59.911Z,969.21
2019-03-10T03:57:59.941Z,969.13
2019-03-10T03:58:59.980Z,969.02
2019-03-10T04:00:00.020Z,969.12
2019-03-10T04:01:00.069Z,969.10
2019-03-10T04:02:00.133Z,969.07
2019-03-10T04:03:00.157Z,969.02
2019-03-10T04:04:00.202Z,968.99
2019-03-10T04:05:00.494Z,969.08
2019-03-10T04:06:00.293Z,968.99
2019-03-10T04:07:00.362Z,968.98
2019-03-10T04:08:00.384Z,969.00
2019-03-10T04:09:00.426Z,968.95
2019-03-10T04:10:00.556Z,968.93
2019-03-10T04:11:00.514Z,968.94
2019-03-10T04:12:00.697Z,968.92
2019-03-10T04:13:00.604Z,968.87
2019-03-10T04:14:00.676Z,968.86
2019-03-10T04:15:00.690Z,968.82
2019-03-10T04:16:00.741Z,968.85
2019-03-10T04:17:00.859Z,968.82
2019-03-10T04:18:00.827Z,968.81
2019-03-10T04:19:00.890Z,968.77
2019-03-10T04:20:00.928Z,968.75
2019-03-10T04:21:00.967Z,968.75
2019-03-10T04:22:01.005Z,968.69
2019-03-10T04:23:01.065Z,968.68
2019-03-10T04:24:01.128Z,968.66
2019-03-10T04:25:01.144Z,968.61
2019-03-10T04:26:01.183Z,968.60
2019-03-10T04:27:01.226Z,968.54
2019-03-10T04:28:01.268Z,968.50
2019-03-10T04:29:01.339Z,968.45
2019-03-10T04:30:01.372Z,968.45
2019-03-10T04:31:01.400Z,968.43
2019-03-10T04:32:01.453Z,968.38
2019-03-10T04:33:01.488Z,968.32
2019-03-10T04:34:01.552Z,968.37
2019-03-10T04:35:01.578Z,968.35
2019-03-10T04:36:01.620Z,968.33
2019-03-10T04:37:01.669Z,968.34
2019-03-10T04:38:01.715Z,968.30
2019-03-10T04:39:01.775Z,968.26
2019-03-10T04:40:01.805Z,968.15
2019-03-10T04:41:01.843Z,968.16
2019-03-10T04:42:01.887Z,968.07
2019-03-10T04:43:01.951Z,968.07
2019-03-10T04:44:01.978Z,968.06
2019-03-10T04:45:02.021Z,968.06
2019-03-10T04:46:02.064Z,967.97
2019-03-10T04:47:02.111Z,968.06
2019-03-10T04:48:02.196Z,968.09
2019-03-10T04:49:02.196Z,968.15
2019-03-10T04:50:02.257Z,968.10
2019-03-10T04:51:02.292Z,968.05
2019-03-10T04:52:02.334Z,968.12
2019-03-10T04:53:02.398Z,968.08
2019-03-10T04:54:02.418Z,968.06
2019-03-10T04:55:02.497Z,968.02
2019-03-10T04:56:02.509Z,968.02
2019-03-10T04:57:02.557Z,968.00
2019-03-10T04:58:02.595Z,967.99
2019-03-10T04:59:02.664Z,967.97
2019-03-10T05:00:02.690Z,967.95
2019-03-10T05:01:02.742Z,967.97
2019-03-10T05:02:02.780Z,968.02
2019-03-10T05:03:02.820Z,968.05
2019-03-10T05:04:02.884Z,968.00
2019-03-10T05:05:02.910Z,967.94
2019-03-10T05:06:02.977Z,967.91
2019-03-10T05:07:02.995Z,967.96
2019-03-10T05:08:03.041Z,968.00
2019-03-10T05:09:03.117Z,968.05
2019-03-10T05:10:03.135Z,968.03
2019-03-10T05:11:03.179Z,968.00
2019-03-10T05:12:03.220Z,968.10
2019-03-10T05:13:03.265Z,968.07
2019-03-10T05:14:03.329Z,968.15
2019-03-10T05:15:03.378Z,968.15
2019-03-10T05:16:03.463Z,968.13
2019-03-10T05:17:03.443Z,968.14
2019-03-10T05:18:03.491Z,968.18
2019-03-10T05:19:03.536Z,968.21
2019-03-10T05:20:03.611Z,968.20
2019-03-10T05:21:03.623Z,968.13
2019-03-10T05:22:03.669Z,968.15
2019-03-10T05:23:03.721Z,968.12
2019-03-10T05:24:03.762Z,968.13
2019-03-10T05:25:03.829Z,968.13
2019-03-10T05:26:03.865Z,968.09
2019-03-10T05:27:03.892Z,968.08
2019-03-10T05:28:03.941Z,968.05
2019-03-10T05:29:03.980Z,968.12
2019-03-10T05:30:04.048Z,968.10
2019-03-10T05:31:04.075Z,968.11
2019-03-10T05:32:04.118Z,968.13
2019-03-10T05:33:04.167Z,968.15
2019-03-10T05:34:04.206Z,968.17
2019-03-10T05:35:04.275Z,968.14
2019-03-10T05:36:04.300Z,968.15
2019-03-10T05:37:04.344Z,968.10
2019-03-10T05:38:04.391Z,968.11
2019-03-10T05:39:04.439Z,968.08
2019-03-10T05:40:04.494Z,968.08
2019-03-10T05:41:04.548Z,968.11
2019-03-10T05:42:04.567Z,968.09
2019-03-10T05:43:04.614Z,968.14
2019-03-10T05:44:04.664Z,968.08
2019-03-10T05:45:04.701Z,968.08
2019-03-10T05:46:04.765Z,968.07
2019-03-10T05:47:04.791Z,968.04
2019-03-10T05:48:04.973Z,968.04
2019-03-10T05:49:04.883Z,968.03
2019-03-10T05:50:04.931Z,968.00
2019-03-10T05:51:04.986Z,968.02
2019-03-10T05:52:05.016Z,968.03
2019-03-10T05:53:05.066Z,968.01
2019-03-10T05:54:05.105Z,967.96
2019-03-10T05:55:05.206Z,967.91
2019-03-10T05:56:05.217Z,967.98
2019-03-10T05:57:05.249Z,967.93
2019-03-10T05:58:05.287Z,967.91
2019-03-10T05:59:05.331Z,967.91
2019-03-10T06:00:05.374Z,967.93
2019-03-10T06:01:05.442Z,967.97
2019-03-10T06:02:05.483Z,967.97
2019-03-10T06:03:05.511Z,967.91
2019-03-10T06:04:05.572Z,967.96
2019-03-10T06:05:06.218Z,967.96
2019-03-10T06:06:05.647Z,967.91
2019-03-10T06:07:05.712Z,967.98
2019-03-10T06:08:05.736Z,967.95
2019-03-10T06:09:05.786Z,967.93
2019-03-10T06:10:05.826Z,967.98
2019-03-10T06:11:05.909Z,967.90
2019-03-10T06:12:05.938Z,967.84
2019-03-10T06:13:05.960Z,967.89
2019-03-10T06:14:06.006Z,967.85
2019-03-10T06:15:06.068Z,967.88
2019-03-10T06:16:06.095Z,967.86
2019-03-10T06:17:06.181Z,967.86
2019-03-10T06:18:13.650Z,967.82
2019-03-10T06:19:06.236Z,967.87
2019-03-10T06:20:06.273Z,967.80
2019-03-10T06:21:06.320Z,967.83
2019-03-10T06:22:06.514Z,967.87
2019-03-10T06:23:06.410Z,967.87
2019-03-10T06:24:06.458Z,967.82
2019-03-10T06:25:06.515Z,967.82
2019-03-10T06:26:06.549Z,967.77
2019-03-10T06:27:06.612Z,967.77
2019-03-10T06:28:06.634Z,967.83
2019-03-10T06:29:06.679Z,967.79
2019-03-10T06:30:06.724Z,967.84
2019-03-10T06:31:06.774Z,967.84
2019-03-10T06:32:06.840Z,967.84
2019-03-10T06:33:06.868Z,967.80
2019-03-10T06:34:06.905Z,967.89
2019-03-10T06:35:06.949Z,967.87
2019-03-10T06:36:07.081Z,967.86
2019-03-10T06:37:07.063Z,967.85
2019-03-10T06:38:07.121Z,967.81
2019-03-10T06:39:07.132Z,967.80
2019-03-10T06:40:07.187Z,967.77
2019-03-10T06:41:07.235Z,967.80
2019-03-10T06:42:07.269Z,967.78
2019-03-10T06:43:07.349Z,967.68
2019-03-10T06:44:07.362Z,967.68
2019-03-10T06:45:07.430Z,967.74
2019-03-10T06:46:07.447Z,967.68
2019-03-10T06:47:07.514Z,967.67
2019-03-10T06:48:07.566Z,967.71
2019-03-10T06:49:07.584Z,967.71
2019-03-10T06:50:07.635Z,967.81
2019-03-10T06:51:07.683Z,967.79
2019-03-10T06:52:07.727Z,967.81
2019-03-10T06:53:07.789Z,967.81
2019-03-10T06:54:07.822Z,967.72
2019-03-10T06:55:07.861Z,967.73
2019-03-10T06:56:07.897Z,967.68
2019-03-10T06:57:07.958Z,967.72
2019-03-10T06:58:08.016Z,967.66
2019-03-10T06:59:08.058Z,967.69
2019-03-10T07:00:08.082Z,967.70
2019-03-10T07:01:08.225Z,967.69
2019-03-10T07:02:08.171Z,967.69
2019-03-10T07:03:08.217Z,967.75
2019-03-10T07:04:08.287Z,967.70
2019-03-10T07:05:08.309Z,967.70
2019-03-10T07:06:08.354Z,967.68
2019-03-10T07:07:08.400Z,967.63
2019-03-10T07:08:08.513Z,967.63
2019-03-10T07:09:08.518Z,967.63
2019-03-10T07:10:08.534Z,967.59
2019-03-10T07:11:08.579Z,967.61
2019-03-10T07:12:08.625Z,967.58
2019-03-10T07:13:08.687Z,967.55
2019-03-10T07:14:08.752Z,967.51
2019-03-10T07:15:08.801Z,967.53
2019-03-10T07:16:08.815Z,967.48
2019-03-10T07:17:08.859Z,967.49
2019-03-10T07:18:08.900Z,967.47
2019-03-10T07:19:08.969Z,967.46
2019-03-10T07:20:08.987Z,967.48
2019-03-10T07:21:09.035Z,967.50
2019-03-10T07:22:09.076Z,967.44
2019-03-10T07:23:09.125Z,967.49
2019-03-10T07:24:09.196Z,967.53
2019-03-10T07:25:09.215Z,967.56
2019-03-10T07:26:09.259Z,967.46
2019-03-10T07:27:09.311Z,967.51
2019-03-10T07:28:09.356Z,967.50
2019-03-10T07:29:09.418Z,967.50
2019-03-10T07:30:09.454Z,967.47
2019-03-10T07:31:09.497Z,967.52
2019-03-10T07:32:09.532Z,967.52
2019-03-10T07:33:09.584Z,967.46
2019-03-10T07:34:09.663Z,967.49
2019-03-10T07:35:09.779Z,967.50
2019-03-10T07:36:09.725Z,967.50
2019-03-10T07:37:09.767Z,967.49
2019-03-10T07:38:09.812Z,967.48
2019-03-10T07:39:09.874Z,967.48
2019-03-10T07:40:09.937Z,967.52
2019-03-10T07:41:09.945Z,967.45
2019-03-10T07:42:10.080Z,967.42
2019-03-10T07:43:10.040Z,967.49
2019-03-10T07:44:10.082Z,967.43
2019-03-10T07:45:10.162Z,967.42
2019-03-10T07:46:10.172Z,967.54
2019-03-10T07:47:10.230Z,967.48
2019-03-10T07:48:10.297Z,967.59
2019-03-10T07:49:10.359Z,967.59
2019-03-10T07:50:10.388Z,967.57
2019-03-10T07:51:10.424Z,967.57
2019-03-10T07:52:19.759Z,967.57
2019-03-10T07:53:10.489Z,967.58
2019-03-10T07:54:10.554Z,967.56
2019-03-10T07:55:10.603Z,967.56
2019-03-10T07:56:11.514Z,967.58
2019-03-10T07:57:10.678Z,967.64
2019-03-10T07:58:10.730Z,967.65
2019-03-10T07:59:10.779Z,967.67
2019-03-10T08:00:10.818Z,967.72
2019-03-10T08:01:10.878Z,967.73
2019-03-10T08:02:10.905Z,967.72
2019-03-10T08:03:10.949Z,967.69
2019-03-10T08:04:11.042Z,967.72
2019-03-10T08:05:11.046Z,967.72
2019-03-10T08:06:11.106Z,967.78
2019-03-10T08:07:11.134Z,967.79
2019-03-10T08:08:11.183Z,967.76
2019-03-10T08:09:11.238Z,967.76
2019-03-10T08:10:11.271Z,967.81
2019-03-10T08:11:11.349Z,967.78
2019-03-10T08:12:11.363Z,967.75
2019-03-10T08:13:11.411Z,967.83
2019-03-10T08:14:11.592Z,967.79
2019-03-10T08:15:11.503Z,967.79
2019-03-10T08:16:11.594Z,967.75
2019-03-10T08:17:11.587Z,967.68
2019-03-10T08:18:11.636Z,967.62
2019-03-10T08:19:11.693Z,967.58
2019-03-10T08:20:11.736Z,967.76
2019-03-10T08:21:11.871Z,967.61
2019-03-10T08:22:11.863Z,967.69
2019-03-10T08:23:11.869Z,967.68
2019-03-10T08:24:11.928Z,967.60
2019-03-10T08:25:11.965Z,967.61
2019-03-10T08:26:12.006Z,967.66
2019-03-10T08:27:12.073Z,967.64
2019-03-10T08:28:12.169Z,967.65
2019-03-10T08:29:12.141Z,967.70
2019-03-10T08:30:12.190Z,967.75
2019-03-10T08:31:12.243Z,967.74
2019-03-10T08:32:12.344Z,967.64
2019-03-10T08:33:12.391Z,967.72
2019-03-10T08:34:12.380Z,967.83
2019-03-10T08:35:12.435Z,967.78
2019-03-10T08:36:13.763Z,967.76
2019-03-10T08:37:12.539Z,967.84
2019-03-10T08:38:12.594Z,967.75
2019-03-10T08:39:12.711Z,967.80
2019-03-10T08:40:12.662Z,967.77
2019-03-10T08:41:12.714Z,967.80
2019-03-10T08:42:20.274Z,967.85
2019-03-10T08:43:12.815Z,967.78
2019-03-10T08:44:12.841Z,967.80
2019-03-10T08:45:12.885Z,967.83
2019-03-10T08:46:12.934Z,967.80
2019-03-10T08:47:12.997Z,967.82
2019-03-10T08:48:13.043Z,967.78
2019-03-10T08:49:13.073Z,967.82
2019-03-10T08:50:13.121Z,967.86
2019-03-10T08:51:13.159Z,967.73
2019-03-10T08:52:13.211Z,967.76
2019-03-10T08:53:13.286Z,967.74
2019-03-10T08:54:13.304Z,967.78
2019-03-10T08:55:13.356Z,967.72
2019-03-10T08:56:13.400Z,967.78
2019-03-10T08:57:13.438Z,967.77
2019-03-10T08:58:13.514Z,967.83
2019-03-10T08:59:13.529Z,967.78
2019-03-10T09:00:13.581Z,967.79
2019-03-10T09:01:13.627Z,967.81
2019-03-10T09:02:13.667Z,967.87
2019-03-10T09:03:13.756Z,967.78
2019-03-10T09:04:13.760Z,967.84
2019-03-10T09:05:13.813Z,967.89
2019-03-10T09:06:13.855Z,967.88
2019-03-10T09:07:13.915Z,967.83
2019-03-10T09:08:13.999Z,967.86
2019-03-10T09:09:14.031Z,967.94
2019-03-10T09:10:14.045Z,967.85
2019-03-10T09:11:14.097Z,967.84
2019-03-10T09:12:14.133Z,967.87
2019-03-10T09:13:14.178Z,967.82
2019-03-10T09:14:14.249Z,967.92
2019-03-10T09:15:14.270Z,967.94
2019-03-10T09:16:14.319Z,967.90
2019-03-10T09:17:14.366Z,967.87
2019-03-10T09:18:14.414Z,967.93
2019-03-10T09:19:14.496Z,967.80
2019-03-10T09:20:14.508Z,967.86
2019-03-10T09:21:14.558Z,967.81
2019-03-10T09:22:14.598Z,967.80
2019-03-10T09:23:14.674Z,967.78
2019-03-10T09:24:14.710Z,967.69
2019-03-10T09:25:14.731Z,967.67
2019-03-10T09:26:14.785Z,967.66
2019-03-10T09:27:14.826Z,967.67
2019-03-10T09:28:14.872Z,967.65
2019-03-10T09:29:14.948Z,967.61
2019-03-10T09:30:14.966Z,967.59
2019-03-10T09:31:15.026Z,967.62
2019-03-10T09:32:15.080Z,967.53
2019-03-10T09:33:15.111Z,967.58
2019-03-10T09:34:15.277Z,967.50
2019-03-10T09:35:15.218Z,967.42
2019-03-10T09:36:15.244Z,967.37
2019-03-10T09:37:15.288Z,967.39
2019-03-10T09:38:15.340Z,967.35
2019-03-10T09:39:15.388Z,967.36
2019-03-10T09:40:15.445Z,967.31
2019-03-10T09:41:15.607Z,967.35
2019-03-10T09:42:15.524Z,967.33
2019-03-10T09:43:15.577Z,967.35
2019-03-10T09:44:15.618Z,967.34
2019-03-10T09:45:15.686Z,967.30
2019-03-10T09:46:15.701Z,967.30
2019-03-10T09:47:15.756Z,967.30
2019-03-10T09:48:15.804Z,967.26
2019-03-10T09:49:15.845Z,967.26
2019-03-10T09:50:15.956Z,967.27
2019-03-10T09:51:15.936Z,967.30
2019-03-10T09:52:15.983Z,967.28
2019-03-10T09:53:16.023Z,967.31
2019-03-10T09:54:16.087Z,967.28
2019-03-10T09:55:16.139Z,967.28
2019-03-10T09:56:16.165Z,967.23
2019-03-10T09:57:16.269Z,967.20
2019-03-10T09:58:16.286Z,967.19
2019-03-10T09:59:16.315Z,967.19
2019-03-10T10:00:16.379Z,967.20
2019-03-10T10:01:16.400Z,967.21
2019-03-10T10:02:16.446Z,967.18
2019-03-10T10:03:16.485Z,967.13
2019-03-10T10:04:16.630Z,967.01
2019-03-10T10:05:16.609Z,966.86
2019-03-10T10:06:16.649Z,966.84
2019-03-10T10:07:16.668Z,966.75
2019-03-10T10:08:16.715Z,966.76
2019-03-10T10:09:16.782Z,966.72
2019-03-10T10:10:16.812Z,966.70
2019-03-10T10:11:16.956Z,966.72
2019-03-10T10:12:16.899Z,966.73
2019-03-10T10:13:16.961Z,966.73
2019-03-10T10:14:16.998Z,966.76
2019-03-10T10:15:17.040Z,966.71
2019-03-10T10:16:17.145Z,966.79
2019-03-10T10:17:17.140Z,966.73
2019-03-10T10:18:17.180Z,966.74
2019-03-10T10:19:17.242Z,966.72
2019-03-10T10:20:17.271Z,966.73
2019-03-10T10:21:17.355Z,966.73
2019-03-10T10:22:17.371Z,966.67
2019-03-10T10:23:17.423Z,966.67
2019-03-10T10:24:17.512Z,966.68
2019-03-10T10:25:17.533Z,966.70
2019-03-10T10:26:17.573Z,966.64
2019-03-10T10:27:19.989Z,966.62
2019-03-10T10:28:17.653Z,966.56
2019-03-10T10:29:17.712Z,966.57
2019-03-10T10:30:17.743Z,966.60
2019-03-10T10:31:17.789Z,966.62
2019-03-10T10:32:17.867Z,966.59
2019-03-10T10:33:17.883Z,966.61
2019-03-10T10:34:17.927Z,966.57
2019-03-10T10:35:17.963Z,966.56
2019-03-10T10:36:18.013Z,966.53
2019-03-10T10:37:18.088Z,966.45
2019-03-10T10:38:19.143Z,966.48
2019-03-10T10:39:18.155Z,966.45
2019-03-10T10:40:18.204Z,966.45
2019-03-10T10:41:18.241Z,966.45
2019-03-10T10:42:18.364Z,966.38
2019-03-10T10:43:18.343Z,966.29
2019-03-10T10:44:18.394Z,966.34
2019-03-10T10:45:18.439Z,966.41
2019-03-10T10:46:18.476Z,966.41
2019-03-10T10:47:18.554Z,966.37
2019-03-10T10:48:18.577Z,966.42
2019-03-10T10:49:18.634Z,966.37
2019-03-10T10:50:18.675Z,966.34
2019-03-10T10:51:18.713Z,966.40
2019-03-10T10:52:18.798Z,966.41
2019-03-10T10:53:21.391Z,966.50
2019-03-10T10:54:18.847Z,966.49
2019-03-10T10:55:18.919Z,966.46
2019-03-10T10:56:18.982Z,966.52
2019-03-10T10:57:19.038Z,966.48
2019-03-10T10:58:19.057Z,966.48
2019-03-10T10:59:19.107Z,966.41
2019-03-10T11:00:19.148Z,966.40
2019-03-10T11:01:19.184Z,966.34
2019-03-10T11:02:19.256Z,966.37
2019-03-10T11:03:19.315Z,966.41
2019-03-10T11:04:19.331Z,966.32
2019-03-10T11:05:19.367Z,966.37
2019-03-10T11:06:19.918Z,966.32
2019-03-10T11:07:19.468Z,966.26
2019-03-10T11:08:20.074Z,966.26
2019-03-10T11:09:19.581Z,966.18
2019-03-10T11:10:19.613Z,966.15
2019-03-10T11:11:19.661Z,966.11
2019-03-10T11:12:19.707Z,966.09
2019-03-10T11:13:19.788Z,966.16
2019-03-10T11:14:19.811Z,966.10
2019-03-10T11:15:19.852Z,966.09
2019-03-10T11:16:19.887Z,966.12
2019-03-10T11:17:20.035Z,966.04
2019-03-10T11:18:19.999Z,966.08
2019-03-10T11:19:20.060Z,966.05
2019-03-10T11:20:20.087Z,966.01
2019-03-10T11:21:20.130Z,966.05
2019-03-10T11:22:20.180Z,965.98
2019-03-10T11:23:20.237Z,965.99
2019-03-10T11:24:20.402Z,965.96
2019-03-10T11:25:20.320Z,965.88
2019-03-10T11:26:20.364Z,965.86
2019-03-10T11:27:20.414Z,965.90
2019-03-10T11:28:20.488Z,965.90
2019-03-10T11:29:20.514Z,965.96
2019-03-10T11:30:20.589Z,965.99
2019-03-10T11:31:20.657Z,965.96
2019-03-10T11:32:20.660Z,965.89
2019-03-10T11:33:20.701Z,965.85
2019-03-10T11:34:20.761Z,965.87
2019-03-10T11:35:20.817Z,965.77
2019-03-10T11:36:20.837Z,965.75
2019-03-10T11:37:20.884Z,965.77
2019-03-10T11:38:20.943Z,965.77
2019-03-10T11:39:21.026Z,965.77
2019-03-10T11:40:21.063Z,965.67
2019-03-10T11:41:21.078Z,965.66
2019-03-10T11:42:21.140Z,965.66
2019-03-10T11:43:22.843Z,965.67
2019-03-10T11:44:21.247Z,965.77
2019-03-10T11:45:21.273Z,965.87
2019-03-10T11:46:21.325Z,965.83
2019-03-10T11:47:21.377Z,965.83
2019-03-10T11:48:21.417Z,965.80
2019-03-10T11:49:21.493Z,965.86
2019-03-10T11:50:21.503Z,965.93
2019-03-10T11:51:21.578Z,966.00
2019-03-10T11:52:21.598Z,966.05
2019-03-10T11:53:21.655Z,966.10
2019-03-10T11:54:21.736Z,966.11
2019-03-10T11:55:21.896Z,966.15
2019-03-10T11:56:21.799Z,966.21
2019-03-10T11:57:21.837Z,966.26
2019-03-10T11:58:21.887Z,966.24
2019-03-10T11:59:21.932Z,966.30
2019-03-10T12:00:22.010Z,966.30
2019-03-10T12:01:22.068Z,966.26
2019-03-10T12:02:22.077Z,966.38
2019-03-10T12:03:22.124Z,966.41
2019-03-10T12:04:22.173Z,966.46
2019-03-10T12:05:22.247Z,966.50
2019-03-10T12:06:22.269Z,966.43
2019-03-10T12:07:22.332Z,966.51
2019-03-10T12:08:22.438Z,966.41
2019-03-10T12:09:22.413Z,966.58
2019-03-10T12:10:22.493Z,966.47
2019-03-10T12:11:22.516Z,966.58
2019-03-10T12:12:22.555Z,966.59
2019-03-10T12:13:22.599Z,966.66
2019-03-10T12:14:22.672Z,966.62
2019-03-10T12:15:22.786Z,966.62
2019-03-10T12:16:22.759Z,966.64
2019-03-10T12:17:22.811Z,966.68
2019-03-10T12:18:22.840Z,966.65
2019-03-10T12:19:22.891Z,966.59
2019-03-10T12:20:22.957Z,966.57
2019-03-10T12:21:22.987Z,966.61
2019-03-10T12:22:23.033Z,966.57
2019-03-10T12:23:23.133Z,966.64
2019-03-10T12:24:23.132Z,966.66
2019-03-10T12:25:23.208Z,966.74
2019-03-10T12:26:23.263Z,966.70
2019-03-10T12:27:23.272Z,966.79
2019-03-10T12:28:23.336Z,966.77
2019-03-10T12:29:23.398Z,966.88